Time;durP1;ratioP1;P1;durP2;ratioP2;P2;SDS_P1;SDS_P2;PMS_P1;PMS_P2;Temp;Humidity;BMP_temperature;BMP_pressure;BME280_temperature;BME280_humidity;BME280_pressure;Samples;Min_cycle;Max_cycle;Signal;HPM_P1;HPM_P2
2022/05/23 00:00:51;;;;;;;16.70;8.18;;;;;;;;;;5053151;28;20017;-72
2022/05/23 00:03:20;;;;;;;18.02;7.88;;;;;;;;;;5052778;28;20482;-72
2022/05/23 00:05:46;;;;;;;15.77;8.10;;;;;;;;;;5052672;28;20028;-72
2022/05/23 00:08:12;;;;;;;15.50;8.55;;;;;;;;;;5053807;28;20102;-72
2022/05/23 00:10:39;;;;;;;13.45;8.13;;;;;;;;;;5052369;28;20040;-72
2022/05/23 00:13:06;;;;;;;11.90;8.20;;;;;;;;;;5052420;28;20021;-72
2022/05/23 00:15:32;;;;;;;16.77;8.10;;;;;;;;;;5052283;28;20043;-72
2022/05/23 00:17:59;;;;;;;18.05;8.23;;;;;;;;;;5052840;28;20017;-72
2022/05/23 00:20:26;;;;;;;12.18;8.05;;;;;;;;;;5052502;28;20029;-72
2022/05/23 00:22:52;;;;;;;14.98;8.30;;;;;;;;;;5054215;28;20029;-72
2022/05/23 00:25:20;;;;;;;13.52;8.05;;;;;;;;;;5052385;28;20051;-72
2022/05/23 00:27:46;;;;;;;12.55;7.85;;;;;;;;;;5052415;28;20013;-72
2022/05/23 00:30:16;;;;;;;12.77;7.85;;;;;;;;;;5052331;28;20033;-72
2022/05/23 00:35:38;;;;;;;16.63;8.23;;;;;;;;;;5035709;28;20086;-71
2022/05/23 00:38:05;;;;;;;12.85;8.40;;;;;;;;;;5056629;28;20039;-72
2022/05/23 00:40:31;;;;;;;17.63;8.20;;;;;;;;;;5056052;28;20045;-72
2022/05/23 00:43:14;;;;;;;16.00;8.60;;;;;;;;;;5055790;28;20019;-72
2022/05/23 00:45:51;;;;;;;16.50;7.90;;;;;;;;;;5055944;28;20039;-71
2022/05/23 00:48:20;;;;;;;15.15;8.10;;;;;;;;;;5055824;28;20082;-71
2022/05/23 00:50:49;;;;;;;13.90;8.63;;;;;;;;;;5051987;28;20086;-72
2022/05/23 00:53:16;;;;;;;16.23;7.85;;;;;;;;;;5054549;28;20063;-72
2022/05/23 00:55:44;;;;;;;16.55;8.45;;;;;;;;;;5055312;28;20542;-72
2022/05/23 00:58:13;;;;;;;17.95;8.35;;;;;;;;;;5055627;28;20063;-72
2022/05/23 01:00:39;;;;;;;16.83;7.93;;;;;;;;;;5055456;28;20443;-72
2022/05/23 01:03:07;;;;;;;13.90;7.55;;;;;;;;;;5054850;28;20119;-72
2022/05/23 01:05:35;;;;;;;19.95;7.82;;;;;;;;;;5051088;28;20521;-71
2022/05/23 01:08:03;;;;;;;14.50;8.10;;;;;;;;;;5056016;28;20062;-71
2022/05/23 01:10:30;;;;;;;16.75;7.75;;;;;;;;;;5055478;28;20040;-72
2022/05/23 01:12:56;;;;;;;17.20;7.63;;;;;;;;;;5048620;28;20033;-72
2022/05/23 01:15:27;;;;;;;14.90;7.78;;;;;;;;;;5050253;28;20031;-72
2022/05/23 01:17:54;;;;;;;10.18;7.80;;;;;;;;;;5051934;28;20035;-72
2022/05/23 01:20:21;;;;;;;17.50;7.47;;;;;;;;;;5051980;28;20031;-72
2022/05/23 01:23:06;;;;;;;18.58;8.18;;;;;;;;;;5053005;28;20047;-72
2022/05/23 01:25:35;;;;;;;11.30;7.90;;;;;;;;;;5050733;28;20596;-72
2022/05/23 01:28:02;;;;;;;14.00;8.05;;;;;;;;;;5049930;28;20021;-72
2022/05/23 01:30:29;;;;;;;15.07;8.15;;;;;;;;;;5051465;28;20027;-72
2022/05/23 01:32:55;;;;;;;14.02;7.63;;;;;;;;;;5051101;28;20158;-72
2022/05/23 01:35:22;;;;;;;16.33;8.20;;;;;;;;;;5051115;28;20035;-72
2022/05/23 01:37:48;;;;;;;16.17;8.30;;;;;;;;;;5053015;28;20381;-71
2022/05/23 01:40:16;;;;;;;14.63;8.00;;;;;;;;;;5051215;28;20025;-72
2022/05/23 01:42:43;;;;;;;11.80;7.47;;;;;;;;;;5051171;28;20031;-71
2022/05/23 01:45:10;;;;;;;12.32;7.93;;;;;;;;;;5051053;28;20486;-72
2022/05/23 01:47:36;;;;;;;13.57;8.13;;;;;;;;;;5049656;28;20594;-71
2022/05/23 01:50:03;;;;;;;14.18;7.70;;;;;;;;;;5052828;28;20036;-72
2022/05/23 01:52:29;;;;;;;13.88;7.97;;;;;;;;;;5050758;28;20020;-72
2022/05/23 01:54:56;;;;;;;13.93;8.02;;;;;;;;;;5050762;28;20039;-72
2022/05/23 01:57:22;;;;;;;14.18;8.93;;;;;;;;;;5051083;28;20021;-72
2022/05/23 02:02:33;;;;;;;14.40;8.60;;;;;;;;;;5050743;28;20009;-72
2022/05/23 02:05:00;;;;;;;18.13;8.77;;;;;;;;;;5052360;28;20036;-72
2022/05/23 02:07:26;;;;;;;16.77;9.18;;;;;;;;;;5049267;28;20447;-72
2022/05/23 02:09:52;;;;;;;14.13;8.90;;;;;;;;;;5050601;28;20025;-72
2022/05/23 02:12:19;;;;;;;15.25;9.20;;;;;;;;;;5050643;28;20543;-72
2022/05/23 02:14:46;;;;;;;14.43;9.35;;;;;;;;;;5050717;28;20017;-72
2022/05/23 02:17:12;;;;;;;13.02;8.43;;;;;;;;;;5051699;28;20029;-71
2022/05/23 02:19:39;;;;;;;17.67;8.25;;;;;;;;;;5051623;28;20017;-72
2022/05/23 02:22:05;;;;;;;16.38;8.90;;;;;;;;;;5050417;28;20025;-72
2022/05/23 02:24:31;;;;;;;13.77;8.43;;;;;;;;;;5050373;28;20021;-71
2022/05/23 02:26:58;;;;;;;12.77;8.20;;;;;;;;;;5049281;28;20032;-71
2022/05/23 02:29:25;;;;;;;15.00;8.90;;;;;;;;;;5050334;28;20482;-71
2022/05/23 02:31:52;;;;;;;13.27;8.20;;;;;;;;;;5052206;28;20021;-71
2022/05/23 02:34:18;;;;;;;12.35;8.05;;;;;;;;;;5050360;28;20024;-72
2022/05/23 02:36:45;;;;;;;19.35;7.95;;;;;;;;;;5050174;28;20033;-71
2022/05/23 02:39:12;;;;;;;16.40;9.25;;;;;;;;;;5050304;28;20017;-71
2022/05/23 02:41:39;;;;;;;15.27;8.10;;;;;;;;;;5034663;28;20021;-72
2022/05/23 02:44:06;;;;;;;17.27;7.95;;;;;;;;;;5052448;28;20042;-72
2022/05/23 02:46:32;;;;;;;15.70;8.48;;;;;;;;;;5048035;28;20043;-71
2022/05/23 02:48:59;;;;;;;11.80;8.38;;;;;;;;;;5050186;28;20021;-72
2022/05/23 02:51:25;;;;;;;13.40;8.30;;;;;;;;;;5050415;28;20078;-72
2022/05/23 02:53:52;;;;;;;14.57;8.63;;;;;;;;;;5050086;28;20029;-72
2022/05/23 02:56:18;;;;;;;14.95;8.50;;;;;;;;;;5051092;28;20025;-72
2022/05/23 02:58:45;;;;;;;14.32;8.60;;;;;;;;;;5051246;28;20078;-72
2022/05/23 03:01:13;;;;;;;15.25;8.02;;;;;;;;;;5049580;28;20017;-72
2022/05/23 03:03:39;;;;;;;16.25;8.70;;;;;;;;;;5050243;28;20023;-71
2022/05/23 03:06:05;;;;;;;14.27;8.13;;;;;;;;;;5050299;28;20021;-72
2022/05/23 03:08:32;;;;;;;12.07;7.90;;;;;;;;;;5049845;28;20027;-71
2022/05/23 03:11:00;;;;;;;13.27;8.27;;;;;;;;;;5052011;28;20036;-72
2022/05/23 03:13:27;;;;;;;15.85;8.68;;;;;;;;;;5050040;28;20028;-72
2022/05/23 03:15:53;;;;;;;14.73;8.10;;;;;;;;;;5049196;28;20444;-72
2022/05/23 03:18:20;;;;;;;16.02;7.93;;;;;;;;;;5050349;28;20021;-72
2022/05/23 03:20:46;;;;;;;14.43;7.93;;;;;;;;;;5049902;28;20032;-72
2022/05/23 03:28:44;;;;;;;18.92;7.45;;;;;;;;;;5049837;28;20032;-72
2022/05/23 03:31:10;;;;;;;19.88;8.38;;;;;;;;;;5049305;28;20388;-72
2022/05/23 03:33:37;;;;;;;12.85;7.80;;;;;;;;;;5049705;28;20507;-72
2022/05/23 03:36:03;;;;;;;17.67;8.32;;;;;;;;;;5049631;28;20041;-72
2022/05/23 03:38:30;;;;;;;13.23;7.57;;;;;;;;;;5049925;28;20030;-72
2022/05/23 03:40:56;;;;;;;16.65;8.02;;;;;;;;;;5051655;28;20393;-72
2022/05/23 03:43:22;;;;;;;16.17;7.78;;;;;;;;;;5049827;28;20017;-71
2022/05/23 03:45:49;;;;;;;13.52;7.82;;;;;;;;;;5048754;28;20055;-72
2022/05/23 03:48:15;;;;;;;11.23;7.50;;;;;;;;;;5048281;28;20051;-71
2022/05/23 03:50:43;;;;;;;20.55;7.13;;;;;;;;;;5053099;28;20021;-72
2022/05/23 03:53:09;;;;;;;20.17;7.63;;;;;;;;;;5055159;28;20027;-72
2022/05/23 03:55:35;;;;;;;14.68;7.93;;;;;;;;;;5051917;28;20041;-71
2022/05/23 03:58:02;;;;;;;14.70;7.63;;;;;;;;;;5052806;28;20066;-71
2022/05/23 04:00:28;;;;;;;13.25;7.40;;;;;;;;;;5052588;28;20024;-71
2022/05/23 04:02:55;;;;;;;13.32;7.22;;;;;;;;;;5051460;28;20020;-71
2022/05/23 04:05:21;;;;;;;18.00;7.20;;;;;;;;;;5053679;28;20036;-72
2022/05/23 04:07:48;;;;;;;15.45;6.28;;;;;;;;;;5054723;28;20009;-71
2022/05/23 04:10:17;;;;;;;14.85;5.97;;;;;;;;;;5052612;28;20021;-72
2022/05/23 04:12:43;;;;;;;21.48;6.30;;;;;;;;;;5052693;28;20024;-72
2022/05/23 04:15:10;;;;;;;17.05;6.45;;;;;;;;;;5052277;28;20032;-71
2022/05/23 04:17:37;;;;;;;16.25;8.23;;;;;;;;;;5052616;28;20025;-72
2022/05/23 04:20:03;;;;;;;26.40;8.05;;;;;;;;;;5054666;28;20029;-72
2022/05/23 04:22:30;;;;;;;14.75;8.45;;;;;;;;;;5052349;28;20078;-72
2022/05/23 04:24:56;;;;;;;23.00;8.98;;;;;;;;;;5052640;28;20021;-72
2022/05/23 04:27:22;;;;;;;17.55;8.05;;;;;;;;;;5052345;28;20017;-71
2022/05/23 04:29:49;;;;;;;12.13;8.27;;;;;;;;;;5052235;28;20017;-71
2022/05/23 04:35:16;;;;;;;17.13;7.95;;;;;;;;;;5054241;28;20033;-72
2022/05/23 04:37:44;;;;;;;13.23;8.25;;;;;;;;;;5053387;28;20029;-71
2022/05/23 04:40:11;;;;;;;13.05;6.88;;;;;;;;;;5052304;28;20492;-71
2022/05/23 04:42:38;;;;;;;14.98;6.60;;;;;;;;;;5050589;28;20019;-71
2022/05/23 04:45:04;;;;;;;20.67;7.15;;;;;;;;;;5052061;28;20009;-71
2022/05/23 04:50:16;;;;;;;16.73;6.80;;;;;;;;;;5050517;28;20385;-72
2022/05/23 04:52:42;;;;;;;12.70;6.65;;;;;;;;;;5052802;28;20512;-72
2022/05/23 04:55:09;;;;;;;12.57;6.13;;;;;;;;;;5051773;28;20024;-72
2022/05/23 04:57:36;;;;;;;15.73;5.55;;;;;;;;;;5051579;28;20025;-71
2022/05/23 05:00:06;;;;;;;13.60;5.30;;;;;;;;;;5050920;28;20440;-71
2022/05/23 05:02:34;;;;;;;17.52;5.53;;;;;;;;;;5052326;28;20028;-71
2022/05/23 05:05:00;;;;;;;25.33;5.63;;;;;;;;;;5053689;28;20037;-71
2022/05/23 05:07:27;;;;;;;15.73;5.47;;;;;;;;;;5051893;28;20027;-71
2022/05/23 05:09:53;;;;;;;14.82;5.53;;;;;;;;;;5051558;28;20025;-72
2022/05/23 05:12:19;;;;;;;14.80;5.68;;;;;;;;;;5051468;28;20374;-72
2022/05/23 05:14:46;;;;;;;15.75;5.60;;;;;;;;;;5051554;28;20455;-72
2022/05/23 05:17:12;;;;;;;13.65;4.93;;;;;;;;;;5053351;28;20035;-71
2022/05/23 05:19:38;;;;;;;18.60;5.40;;;;;;;;;;5050794;28;20020;-72
2022/05/23 05:22:05;;;;;;;22.50;5.75;;;;;;;;;;5050232;28;20017;-72
2022/05/23 05:24:32;;;;;;;16.77;5.60;;;;;;;;;;5051141;28;20049;-71
2022/05/23 05:27:02;;;;;;;18.40;5.63;;;;;;;;;;5051235;28;20046;-71
2022/05/23 05:29:28;;;;;;;16.08;5.65;;;;;;;;;;5051225;28;20025;-72
2022/05/23 05:31:55;;;;;;;19.35;5.95;;;;;;;;;;5053125;28;20031;-72
2022/05/23 05:34:23;;;;;;;15.35;6.60;;;;;;;;;;5050824;28;20025;-72
2022/05/23 05:36:52;;;;;;;20.75;6.28;;;;;;;;;;5051011;28;20024;-72
2022/05/23 05:39:20;;;;;;;22.85;6.18;;;;;;;;;;5050932;28;20033;-72
2022/05/23 05:41:47;;;;;;;17.15;6.43;;;;;;;;;;5050583;28;20024;-72
2022/05/23 05:44:18;;;;;;;18.35;6.18;;;;;;;;;;5052363;28;20039;-71
2022/05/23 05:46:47;;;;;;;17.67;6.18;;;;;;;;;;5049523;28;20047;-72
2022/05/23 05:49:16;;;;;;;15.25;5.93;;;;;;;;;;5050874;28;20043;-71
2022/05/23 05:51:44;;;;;;;16.88;5.63;;;;;;;;;;5050683;28;20013;-72
2022/05/23 05:54:12;;;;;;;17.65;6.35;;;;;;;;;;5050923;28;20033;-71
2022/05/23 05:56:39;;;;;;;14.15;6.88;;;;;;;;;;5034476;28;20456;-72
2022/05/23 05:59:06;;;;;;;19.15;6.22;;;;;;;;;;5052593;28;20508;-71
2022/05/23 06:01:33;;;;;;;15.13;5.95;;;;;;;;;;5049144;28;20031;-72
2022/05/23 06:03:59;;;;;;;14.75;6.47;;;;;;;;;;5050768;28;20028;-71
2022/05/23 06:11:55;;;;;;;20.92;7.18;;;;;;;;;;5034806;28;20503;-72
2022/05/23 06:14:22;;;;;;;16.25;6.50;;;;;;;;;;5048902;28;20025;-68
2022/05/23 06:16:48;;;;;;;12.48;6.63;;;;;;;;;;5050835;28;20439;-68
2022/05/23 06:19:14;;;;;;;18.02;7.05;;;;;;;;;;5050027;28;20024;-68
2022/05/23 06:21:41;;;;;;;17.20;6.30;;;;;;;;;;5049867;28;20037;-68
2022/05/23 06:24:08;;;;;;;17.60;6.80;;;;;;;;;;5049506;28;20025;-68
2022/05/23 06:26:34;;;;;;;20.70;7.07;;;;;;;;;;5049769;28;20106;-68
2022/05/23 06:29:00;;;;;;;17.85;6.45;;;;;;;;;;5049649;28;20385;-68
2022/05/23 06:31:27;;;;;;;20.27;7.40;;;;;;;;;;5049382;28;20024;-68
2022/05/23 06:33:53;;;;;;;21.13;6.90;;;;;;;;;;5048401;28;20041;-68
2022/05/23 06:36:19;;;;;;;13.02;7.00;;;;;;;;;;5049436;28;20033;-68
2022/05/23 06:38:47;;;;;;;19.85;7.90;;;;;;;;;;5047387;28;20023;-68
2022/05/23 06:41:14;;;;;;;22.15;7.53;;;;;;;;;;5050343;28;20032;-68
2022/05/23 06:43:41;;;;;;;19.88;7.22;;;;;;;;;;5050483;28;20029;-68
2022/05/23 06:46:08;;;;;;;16.35;7.57;;;;;;;;;;5048298;28;20029;-67
2022/05/23 06:48:34;;;;;;;19.67;8.32;;;;;;;;;;5049045;28;20066;-68
2022/05/23 06:51:01;;;;;;;19.08;7.05;;;;;;;;;;5049085;28;20029;-68
2022/05/23 06:53:29;;;;;;;25.75;7.40;;;;;;;;;;5047707;28;20021;-68
2022/05/23 06:55:56;;;;;;;22.52;7.30;;;;;;;;;;5051013;28;20400;-67
2022/05/23 06:58:22;;;;;;;14.63;6.28;;;;;;;;;;5049161;28;20036;-68
2022/05/23 07:00:49;;;;;;;19.38;6.53;;;;;;;;;;5041752;28;20029;-66
2022/05/23 07:03:15;;;;;;;17.42;6.72;;;;;;;;;;5037663;28;20505;-66
2022/05/23 07:14:00;;;;;;;18.10;6.35;;;;;;;;;;5049613;28;20055;-66
2022/05/23 07:16:26;;;;;;;13.90;5.93;;;;;;;;;;5046763;28;20505;-66
2022/05/23 07:18:52;;;;;;;19.33;6.70;;;;;;;;;;5011630;28;20179;-67
2022/05/23 07:21:19;;;;;;;17.27;6.07;;;;;;;;;;4966123;28;20027;-67
2022/05/23 07:23:46;;;;;;;18.33;6.43;;;;;;;;;;4970505;28;20031;-66
2022/05/23 07:26:19;;;;;;;14.18;6.15;;;;;;;;;;4985209;28;20038;-67
2022/05/23 07:28:46;;;;;;;11.55;5.30;;;;;;;;;;4970099;28;20031;-67
2022/05/23 07:31:13;;;;;;;17.67;5.90;;;;;;;;;;4974397;28;20027;-65
2022/05/23 07:33:40;;;;;;;15.48;5.38;;;;;;;;;;4974016;28;20033;-67
2022/05/23 07:36:07;;;;;;;15.70;5.72;;;;;;;;;;4974396;28;20038;-67
2022/05/23 07:38:34;;;;;;;16.90;6.05;;;;;;;;;;4973671;28;20031;-66
2022/05/23 07:41:00;;;;;;;12.32;5.20;;;;;;;;;;4974078;28;20399;-66
2022/05/23 07:43:27;;;;;;;12.98;5.60;;;;;;;;;;4969467;28;20019;-66
2022/05/23 07:45:54;;;;;;;14.63;5.88;;;;;;;;;;4974274;28;20030;-67
2022/05/23 07:48:20;;;;;;;18.48;5.80;;;;;;;;;;4972219;28;20415;-67
2022/05/23 07:50:49;;;;;;;15.60;5.47;;;;;;;;;;4971277;28;20048;-67
2022/05/23 08:01:30;;;;;;;12.45;5.15;;;;;;;;;;4969438;28;20456;-66
2022/05/23 08:03:56;;;;;;;13.68;5.78;;;;;;;;;;4973065;28;20026;-66
2022/05/23 08:06:23;;;;;;;10.07;5.07;;;;;;;;;;4973573;28;20030;-66
2022/05/23 08:08:49;;;;;;;17.92;5.25;;;;;;;;;;4972756;28;20030;-69
2022/05/23 08:11:17;;;;;;;12.65;4.60;;;;;;;;;;4970577;28;20026;-66
2022/05/23 08:13:48;;;;;;;12.45;5.05;;;;;;;;;;4967817;28;20041;-66
2022/05/23 08:16:15;;;;;;;12.10;3.75;;;;;;;;;;4972940;28;20039;-65
2022/05/23 08:18:41;;;;;;;7.38;3.50;;;;;;;;;;4968503;28;20503;-67
2022/05/23 08:21:07;;;;;;;6.53;3.97;;;;;;;;;;4972849;28;20023;-67
2022/05/23 08:23:34;;;;;;;11.27;3.53;;;;;;;;;;4973130;28;20518;-68
2022/05/23 08:26:00;;;;;;;6.57;2.95;;;;;;;;;;4973028;28;20029;-68
2022/05/23 08:28:28;;;;;;;7.88;3.13;;;;;;;;;;4972122;28;20031;-68
2022/05/23 08:30:54;;;;;;;6.75;2.78;;;;;;;;;;4968850;28;20035;-73
2022/05/23 08:33:20;;;;;;;11.98;2.55;;;;;;;;;;4972757;28;20022;-74
2022/05/23 08:35:48;;;;;;;4.40;2.10;;;;;;;;;;4972278;28;20077;-74
2022/05/23 08:38:14;;;;;;;8.27;2.83;;;;;;;;;;4972512;28;20035;-74
2022/05/23 08:40:43;;;;;;;6.40;2.55;;;;;;;;;;4984959;28;20030;-74
2022/05/23 08:43:10;;;;;;;8.15;2.20;;;;;;;;;;4974575;28;20025;-74
2022/05/23 08:45:40;;;;;;;4.15;2.30;;;;;;;;;;4967309;28;20078;-74
2022/05/23 08:48:17;;;;;;;4.38;1.90;;;;;;;;;;4985289;28;20061;-74
2022/05/23 08:50:48;;;;;;;4.72;2.22;;;;;;;;;;4969039;28;20034;-74
2022/05/23 08:53:18;;;;;;;4.05;2.03;;;;;;;;;;4973203;28;20037;-74
2022/05/23 08:55:47;;;;;;;9.90;1.90;;;;;;;;;;4968057;28;20049;-74
2022/05/23 08:58:13;;;;;;;5.75;1.63;;;;;;;;;;4968066;28;20027;-74
2022/05/23 09:00:47;;;;;;;5.63;1.70;;;;;;;;;;4972649;28;20027;-74
2022/05/23 09:03:16;;;;;;;7.40;1.90;;;;;;;;;;4971421;28;20031;-74
2022/05/23 09:05:45;;;;;;;4.45;1.65;;;;;;;;;;4980301;28;20022;-75
2022/05/23 09:08:14;;;;;;;4.10;1.15;;;;;;;;;;4973021;28;20018;-74
2022/05/23 09:10:47;;;;;;;4.63;1.30;;;;;;;;;;4971329;28;20570;-74
2022/05/23 09:13:15;;;;;;;4.05;1.13;;;;;;;;;;4972051;28;20050;-73
2022/05/23 09:15:42;;;;;;;2.92;1.25;;;;;;;;;;4970069;28;20053;-75
2022/05/23 09:18:12;;;;;;;4.65;1.33;;;;;;;;;;4968635;28;20029;-73
2022/05/23 09:20:44;;;;;;;2.13;1.13;;;;;;;;;;4972324;28;20850;-74
2022/05/23 09:23:13;;;;;;;2.38;1.00;;;;;;;;;;4969304;28;20037;-74
2022/05/23 09:25:39;;;;;;;3.22;1.00;;;;;;;;;;4971461;28;20522;-74
2022/05/23 09:28:12;;;;;;;3.55;1.48;;;;;;;;;;4973418;28;20035;-73
2022/05/23 09:30:38;;;;;;;1.48;0.95;;;;;;;;;;4970313;28;20921;-74
2022/05/23 09:33:13;;;;;;;1.52;0.95;;;;;;;;;;4969182;28;20027;-74
2022/05/23 09:35:42;;;;;;;2.95;0.90;;;;;;;;;;4957059;28;20030;-74
2022/05/23 09:38:22;;;;;;;1.30;0.90;;;;;;;;;;4969427;28;20033;-73
2022/05/23 09:40:49;;;;;;;1.83;1.20;;;;;;;;;;4971756;28;20026;-73
2022/05/23 09:49:09;;;;;;;1.85;0.85;;;;;;;;;;4966442;28;20035;-73
2022/05/23 09:51:47;;;;;;;3.05;1.15;;;;;;;;;;4966639;28;20492;-74
2022/05/23 09:54:17;;;;;;;2.15;1.00;;;;;;;;;;4966961;28;20042;-73
2022/05/23 09:56:44;;;;;;;2.15;1.10;;;;;;;;;;4986398;28;20045;-73
2022/05/23 09:59:28;;;;;;;1.63;1.10;;;;;;;;;;4968652;28;20061;-73
2022/05/23 10:01:54;;;;;;;2.20;1.10;;;;;;;;;;4968249;28;20110;-73
2022/05/23 10:04:26;;;;;;;3.38;1.10;;;;;;;;;;4967352;28;20492;-73
2022/05/23 10:06:53;;;;;;;3.03;1.20;;;;;;;;;;4967589;28;20031;-72
2022/05/23 10:09:28;;;;;;;2.83;1.30;;;;;;;;;;4967697;28;20029;-72
2022/05/23 10:12:15;;;;;;;4.03;1.50;;;;;;;;;;4969799;28;20033;-72
2022/05/23 10:14:48;;;;;;;2.97;1.20;;;;;;;;;;4956257;28;20025;-73
2022/05/23 10:17:46;;;;;;;1.92;1.20;;;;;;;;;;4967956;28;20049;-74
2022/05/23 10:20:21;;;;;;;2.42;1.33;;;;;;;;;;4982260;28;20085;-72
2022/05/23 10:22:59;;;;;;;1.73;1.38;;;;;;;;;;4986806;28;20590;-73
2022/05/23 10:25:33;;;;;;;1.67;1.20;;;;;;;;;;4985968;28;20036;-73
2022/05/23 10:28:01;;;;;;;2.70;1.15;;;;;;;;;;4982494;28;20429;-73
2022/05/23 10:30:30;;;;;;;3.13;1.30;;;;;;;;;;4982428;28;20044;-73
2022/05/23 10:33:02;;;;;;;1.30;1.20;;;;;;;;;;4980033;28;20019;-76
2022/05/23 10:35:29;;;;;;;2.58;1.20;;;;;;;;;;4987260;28;20688;-75
2022/05/23 10:42:07;;;;;;;1.77;1.00;;;;;;;;;;4987076;28;20517;-76
2022/05/23 10:43:42;;;;;;;6.07;1.00;;;;;;;;;;4987484;28;20551;-75
2022/05/23 10:46:12;;;;;;;1.02;0.77;;;;;;;;;;4983884;28;20026;-74
2022/05/23 10:48:48;;;;;;;1.65;0.90;;;;;;;;;;4985448;28;20054;-76
2022/05/23 10:51:14;;;;;;;1.08;0.90;;;;;;;;;;4985326;28;20635;-76
2022/05/23 10:53:59;;;;;;;1.00;0.90;;;;;;;;;;4985691;28;20022;-75
2022/05/23 10:56:40;;;;;;;1.77;0.90;;;;;;;;;;4962958;28;20048;-75
2022/05/23 10:59:08;;;;;;;1.50;1.00;;;;;;;;;;4973657;28;20027;-77
2022/05/23 11:01:53;;;;;;;1.75;1.10;;;;;;;;;;4970769;28;20037;-76
2022/05/23 11:04:38;;;;;;;3.53;1.02;;;;;;;;;;4971062;28;20015;-76
2022/05/23 11:07:05;;;;;;;2.88;1.40;;;;;;;;;;4970583;28;20017;-76
2022/05/23 11:09:37;;;;;;;4.55;1.45;;;;;;;;;;4971236;28;20030;-75
2022/05/23 11:12:13;;;;;;;1.60;1.25;;;;;;;;;;4976012;28;20018;-76
2022/05/23 11:14:42;;;;;;;5.50;1.88;;;;;;;;;;4960075;28;20499;-76
2022/05/23 11:17:11;;;;;;;8.13;2.13;;;;;;;;;;4972455;28;20395;-76
2022/05/23 11:19:57;;;;;;;6.85;1.95;;;;;;;;;;4986898;28;20035;-76
2022/05/23 11:22:31;;;;;;;3.63;2.10;;;;;;;;;;4975728;28;20030;-75
2022/05/23 11:25:07;;;;;;;5.03;2.00;;;;;;;;;;4975528;28;20022;-75
2022/05/23 11:35:54;;;;;;;8.02;2.22;;;;;;;;;;4972456;28;20067;-75
2022/05/23 11:38:21;;;;;;;6.68;2.90;;;;;;;;;;4973307;28;20029;-76
2022/05/23 11:41:09;;;;;;;5.50;2.60;;;;;;;;;;4985537;28;20030;-76
2022/05/23 11:43:35;;;;;;;6.95;2.85;;;;;;;;;;4974297;28;20027;-75
2022/05/23 11:46:03;;;;;;;8.85;2.83;;;;;;;;;;4985419;28;20031;-75
2022/05/23 11:48:35;;;;;;;10.38;2.50;;;;;;;;;;4975172;28;20031;-75
2022/05/23 11:51:16;;;;;;;10.40;3.13;;;;;;;;;;4975219;28;20042;-76
2022/05/23 11:53:43;;;;;;;;;;;;;;;;;;4962853;28;20031;-76
2022/05/23 11:56:10;;;;;;;10.38;2.53;;;;;;;;;;4975516;28;19918;-75
2022/05/23 11:58:40;;;;;;;9.50;2.60;;;;;;;;;;4970741;28;20023;-76
2022/05/23 12:01:13;;;;;;;8.43;2.93;;;;;;;;;;4970894;28;20033;-76
2022/05/23 12:04:06;;;;;;;11.52;2.92;;;;;;;;;;4970612;28;20484;-76
2022/05/23 12:06:33;;;;;;;8.02;2.70;;;;;;;;;;4971429;28;20031;-75
2022/05/23 12:09:00;;;;;;;7.80;2.83;;;;;;;;;;4973283;28;20373;-75
2022/05/23 12:11:28;;;;;;;11.88;2.70;;;;;;;;;;4974381;28;20041;-76
2022/05/23 12:13:58;;;;;;;12.82;2.72;;;;;;;;;;4974864;28;20034;-75
2022/05/23 12:16:30;;;;;;;8.82;2.67;;;;;;;;;;4970077;28;20031;-75
2022/05/23 12:19:06;;;;;;;9.05;2.78;;;;;;;;;;4971567;28;20377;-76
2022/05/23 12:21:35;;;;;;;5.22;2.78;;;;;;;;;;4973831;28;20443;-76
2022/05/23 12:24:20;;;;;;;6.03;2.60;;;;;;;;;;4971795;28;20508;-76
2022/05/23 12:26:50;;;;;;;5.45;2.45;;;;;;;;;;4958978;28;20106;-76
2022/05/23 12:29:22;;;;;;;6.88;2.78;;;;;;;;;;4971989;28;20022;-75
2022/05/23 12:32:08;;;;;;;6.15;2.60;;;;;;;;;;4970190;28;20031;-76
2022/05/23 12:34:35;;;;;;;5.32;2.63;;;;;;;;;;4969882;28;20018;-76
2022/05/23 12:37:02;;;;;;;6.60;2.38;;;;;;;;;;4969954;28;20039;-76
2022/05/23 12:39:43;;;;;;;5.85;2.42;;;;;;;;;;4970074;28;20492;-76
2022/05/23 12:42:16;;;;;;;4.20;2.20;;;;;;;;;;4970107;28;20031;-76
2022/05/23 12:45:00;;;;;;;6.00;2.47;;;;;;;;;;4959517;28;20030;-76
2022/05/23 12:47:37;;;;;;;9.40;2.95;;;;;;;;;;4972726;28;20053;-76
2022/05/23 12:50:05;;;;;;;6.45;2.47;;;;;;;;;;4971589;28;20037;-76
2022/05/23 12:52:37;;;;;;;7.28;2.45;;;;;;;;;;4969708;28;20019;-75
2022/05/23 12:55:12;;;;;;;7.13;2.42;;;;;;;;;;4969637;28;20103;-76
2022/05/23 12:57:39;;;;;;;7.93;2.45;;;;;;;;;;4971500;28;20518;-75
2022/05/23 13:00:06;;;;;;;6.25;2.90;;;;;;;;;;4973241;28;20025;-76
2022/05/23 13:02:32;;;;;;;4.55;1.98;;;;;;;;;;4973862;28;20068;-76
2022/05/23 13:05:01;;;;;;;3.92;2.00;;;;;;;;;;4970040;28;20045;-76
2022/05/23 13:07:34;;;;;;;3.90;2.30;;;;;;;;;;4972483;28;20041;-76
2022/05/23 13:10:07;;;;;;;8.05;2.13;;;;;;;;;;4973770;28;20041;-75
2022/05/23 13:12:43;;;;;;;6.35;2.10;;;;;;;;;;4971996;28;20042;-76
2022/05/23 13:15:09;;;;;;;6.95;2.10;;;;;;;;;;4968326;28;20031;-75
2022/05/23 13:17:36;;;;;;;14.77;2.53;;;;;;;;;;4972373;28;20456;-76
2022/05/23 13:22:48;;;;;;;5.93;2.00;;;;;;;;;;4971414;28;20031;-76
2022/05/23 13:25:14;;;;;;;8.02;2.50;;;;;;;;;;4968120;28;20026;-76
2022/05/23 13:27:45;;;;;;;9.05;2.40;;;;;;;;;;4968680;28;20029;-75
2022/05/23 13:30:17;;;;;;;6.22;2.45;;;;;;;;;;4969365;28;20504;-76
2022/05/23 13:33:19;;;;;;;6.15;3.22;;;;;;;;;;4958095;28;20311;-75
2022/05/23 13:35:47;;;;;;;25.30;2.53;;;;;;;;;;4945386;29;20759;-75
2022/05/23 13:38:25;;;;;;;9.18;2.47;;;;;;;;;;4952454;28;20035;-75
2022/05/23 13:40:56;;;;;;;7.55;2.50;;;;;;;;;;4937019;29;20028;-75
2022/05/23 13:43:24;;;;;;;5.70;2.20;;;;;;;;;;4945544;29;20093;-75
2022/05/23 13:46:08;;;;;;;5.05;2.30;;;;;;;;;;4951374;29;20031;-75
2022/05/23 13:48:39;;;;;;;7.72;1.83;;;;;;;;;;4947336;29;20040;-76
2022/05/23 13:51:09;;;;;;;4.97;2.30;;;;;;;;;;4951214;29;20039;-75
2022/05/23 13:53:46;;;;;;;6.80;2.10;;;;;;;;;;4951331;29;20023;-75
2022/05/23 13:56:13;;;;;;;7.40;2.00;;;;;;;;;;4948406;29;20045;-76
2022/05/23 13:58:43;;;;;;;4.75;2.13;;;;;;;;;;4947291;29;20035;-75
2022/05/23 14:01:21;;;;;;;4.35;1.80;;;;;;;;;;4951528;29;20047;-75
2022/05/23 14:03:58;;;;;;;7.03;2.00;;;;;;;;;;4947379;29;20033;-75
2022/05/23 14:06:27;;;;;;;4.93;2.00;;;;;;;;;;4935009;29;20031;-76
2022/05/23 14:08:56;;;;;;;7.70;1.98;;;;;;;;;;4951086;28;20030;-76
2022/05/23 14:11:26;;;;;;;4.30;1.75;;;;;;;;;;4972560;28;20026;-75
2022/05/23 14:13:57;;;;;;;6.53;2.28;;;;;;;;;;4968806;28;20037;-75
2022/05/23 14:16:24;;;;;;;4.93;2.30;;;;;;;;;;4972449;28;20027;-75
2022/05/23 14:19:08;;;;;;;3.05;1.73;;;;;;;;;;4972506;28;20031;-76
2022/05/23 14:21:36;;;;;;;4.90;1.63;;;;;;;;;;4972532;28;20038;-75
2022/05/23 14:24:13;;;;;;;3.42;1.42;;;;;;;;;;4971710;28;20381;-75
2022/05/23 14:26:39;;;;;;;5.63;2.03;;;;;;;;;;4972387;28;20019;-75
2022/05/23 14:29:12;;;;;;;2.72;1.65;;;;;;;;;;4972282;28;20053;-75
2022/05/23 14:31:45;;;;;;;3.88;1.95;;;;;;;;;;4968535;28;20031;-76
2022/05/23 14:34:15;;;;;;;3.72;1.75;;;;;;;;;;4967426;28;20383;-75
2022/05/23 14:36:50;;;;;;;4.30;1.77;;;;;;;;;;4967630;28;20038;-76
2022/05/23 14:39:20;;;;;;;3.08;1.92;;;;;;;;;;4968044;28;20023;-75
2022/05/23 14:41:49;;;;;;;4.53;1.60;;;;;;;;;;4971677;28;20026;-75
2022/05/23 14:44:17;;;;;;;4.30;1.70;;;;;;;;;;4970396;28;20031;-75
2022/05/23 14:47:02;;;;;;;6.63;1.80;;;;;;;;;;4967361;28;20035;-75
2022/05/23 14:49:40;;;;;;;5.00;2.17;;;;;;;;;;4968336;28;20039;-75
2022/05/23 14:52:12;;;;;;;8.27;1.70;;;;;;;;;;4969316;28;20033;-76
2022/05/23 15:00:37;;;;;;;2.50;1.60;;;;;;;;;;4967946;28;20027;-75
2022/05/23 15:03:08;;;;;;;12.07;2.40;;;;;;;;;;4969204;28;20024;-75
2022/05/23 15:05:35;;;;;;;;;;;;;;;;;;4970404;28;20026;-75
2022/05/23 15:08:02;;;;;;;6.10;2.15;;;;;;;;;;4969639;28;19910;-75
2022/05/23 15:10:29;;;;;;;4.38;1.58;;;;;;;;;;4970753;28;20031;-75
2022/05/23 15:12:56;;;;;;;5.95;1.70;;;;;;;;;;4969270;28;20028;-75
2022/05/23 15:15:22;;;;;;;6.60;1.60;;;;;;;;;;4971599;28;20042;-75
2022/05/23 15:17:49;;;;;;;4.43;1.77;;;;;;;;;;4967922;28;20031;-75
2022/05/23 15:20:15;;;;;;;6.90;2.10;;;;;;;;;;4969049;28;20518;-75
2022/05/23 15:22:41;;;;;;;5.95;1.95;;;;;;;;;;4969057;28;20045;-75
2022/05/23 15:25:11;;;;;;;5.35;2.00;;;;;;;;;;4967412;28;20015;-75
2022/05/23 15:27:39;;;;;;;4.90;1.85;;;;;;;;;;4967749;28;20500;-75
2022/05/23 15:30:07;;;;;;;7.15;2.17;;;;;;;;;;4971642;28;20476;-75
2022/05/23 15:32:38;;;;;;;8.45;2.15;;;;;;;;;;4971844;28;20031;-75
2022/05/23 15:35:04;;;;;;;14.05;2.35;;;;;;;;;;4972003;28;20027;-75
2022/05/23 15:37:32;;;;;;;6.88;2.17;;;;;;;;;;4971918;28;20042;-75
2022/05/23 15:39:59;;;;;;;10.13;1.90;;;;;;;;;;4971762;28;20387;-74
2022/05/23 15:42:28;;;;;;;5.10;2.05;;;;;;;;;;4970143;28;20049;-75
2022/05/23 15:44:55;;;;;;;5.55;2.05;;;;;;;;;;4973073;28;20022;-75
2022/05/23 15:47:26;;;;;;;8.65;2.03;;;;;;;;;;4975297;28;20039;-75
2022/05/23 15:49:52;;;;;;;10.00;2.22;;;;;;;;;;4973350;28;20022;-75
2022/05/23 15:52:19;;;;;;;7.32;2.50;;;;;;;;;;4975119;28;20023;-75